createdAt,value
2019-01-18T00:00:24.985Z,4.27
2019-01-18T00:02:54.007Z,3.87
2019-01-18T00:05:22.991Z,3.80
2019-01-18T00:08:11.355Z,5.77
2019-01-18T00:10:40.385Z,4.13
2019-01-18T00:13:09.538Z,4.00
2019-01-18T00:15:38.517Z,3.87
2019-01-18T00:18:07.538Z,4.77
2019-01-18T00:20:36.513Z,5.67
2019-01-18T00:23:05.736Z,5.00
2019-01-18T00:25:34.715Z,6.33
2019-01-18T00:28:03.950Z,3.57
2019-01-18T00:30:33.072Z,3.80
2019-01-18T00:33:02.042Z,4.67
2019-01-18T00:35:31.033Z,4.87
2019-01-18T00:37:59.996Z,3.93
2019-01-18T00:40:29.046Z,3.20
2019-01-18T00:42:57.994Z,4.50
2019-01-18T00:45:27.033Z,5.83
2019-01-18T00:47:55.986Z,3.67
2019-01-18T00:50:25.141Z,6.30
2019-01-18T00:52:54.184Z,3.47
2019-01-18T00:55:23.170Z,3.67
2019-01-18T00:57:52.268Z,5.60
2019-01-18T01:00:26.501Z,5.37
2019-01-18T01:02:55.604Z,4.80
2019-01-18T01:05:25.666Z,6.57
2019-01-18T01:07:54.757Z,4.47
2019-01-18T01:10:23.870Z,4.03
2019-01-18T01:12:52.830Z,5.43
2019-01-18T01:15:22.166Z,5.63
2019-01-18T01:17:51.206Z,4.37
2019-01-18T01:20:23.511Z,6.23
2019-01-18T01:22:52.466Z,3.50
2019-01-18T01:25:21.864Z,3.83
2019-01-18T01:27:51.150Z,3.03
2019-01-18T01:30:25.285Z,4.60
2019-01-18T01:32:54.875Z,3.97
2019-01-18T01:35:24.230Z,4.53
2019-01-18T01:37:53.421Z,5.00
2019-01-18T01:40:24.845Z,4.37
2019-01-18T01:42:54.336Z,6.43
2019-01-18T01:45:23.653Z,3.03
2019-01-18T01:47:52.685Z,4.77
2019-01-18T01:50:24.070Z,6.87
2019-01-18T01:52:53.557Z,7.93
2019-01-18T01:55:22.944Z,4.17
2019-01-18T01:57:51.967Z,4.80
2019-01-18T02:00:23.366Z,2.63
2019-01-18T02:02:52.468Z,5.97
2019-01-18T02:05:21.674Z,3.43
2019-01-18T02:07:50.802Z,4.53
2019-01-18T02:10:19.927Z,6.23
2019-01-18T02:12:49.222Z,5.00
2019-01-18T02:15:25.922Z,3.60
2019-01-18T02:17:55.094Z,5.67
2019-01-18T02:20:24.517Z,4.10
2019-01-18T02:22:53.706Z,4.40
2019-01-18T02:25:22.945Z,4.60
2019-01-18T02:27:52.446Z,4.70
2019-01-18T02:30:26.420Z,5.63
2019-01-18T02:32:55.555Z,4.40
2019-01-18T02:35:24.871Z,4.37
2019-01-18T02:37:53.964Z,4.47
2019-01-18T02:40:23.176Z,8.43
2019-01-18T02:42:52.207Z,4.40
2019-01-18T02:45:23.035Z,5.30
2019-01-18T02:47:52.150Z,5.00
2019-01-18T02:50:21.204Z,1.90
2019-01-18T02:52:50.315Z,4.93
2019-01-18T02:55:19.426Z,2.77
2019-01-18T02:57:48.383Z,6.93
2019-01-18T03:00:22.338Z,3.60
2019-01-18T03:02:51.694Z,3.73
2019-01-18T03:05:23.270Z,8.67
2019-01-18T03:07:52.495Z,6.53
2019-01-18T03:10:26.705Z,4.87
2019-01-18T03:12:55.650Z,5.97
2019-01-18T03:15:24.875Z,5.63
2019-01-18T03:17:54.279Z,5.87
2019-01-18T03:20:23.382Z,5.00
2019-01-18T03:22:53.191Z,2.43
2019-01-18T03:25:24.404Z,3.53
2019-01-18T03:27:53.439Z,2.73
2019-01-18T03:30:22.425Z,3.73
2019-01-18T03:32:51.388Z,3.03
2019-01-18T03:35:22.006Z,3.83
2019-01-18T03:37:51.235Z,4.03
2019-01-18T03:40:20.959Z,3.67
2019-01-18T03:42:50.261Z,2.77
2019-01-18T03:45:20.380Z,6.30
2019-01-18T03:47:49.477Z,3.13
2019-01-18T03:50:20.798Z,2.80
2019-01-18T03:52:49.791Z,4.20
2019-01-18T03:55:18.885Z,2.50
2019-01-18T03:57:48.200Z,3.33
2019-01-18T04:00:28.304Z,4.03
2019-01-18T04:02:57.402Z,4.57
2019-01-18T04:05:26.651Z,5.77
2019-01-18T04:07:55.685Z,3.97
2019-01-18T04:10:24.635Z,3.63
2019-01-18T04:12:53.746Z,2.83
2019-01-18T04:15:24.538Z,5.17
2019-01-18T04:17:53.743Z,4.90
2019-01-18T04:20:23.451Z,3.03
2019-01-18T04:22:52.761Z,3.87
2019-01-18T04:25:23.802Z,5.20
2019-01-18T04:27:52.771Z,4.23
2019-01-18T04:30:23.064Z,4.90
2019-01-18T04:32:52.117Z,4.30
2019-01-18T04:35:21.198Z,3.23
2019-01-18T04:37:50.303Z,3.20
2019-01-18T04:40:26.885Z,5.73
2019-01-18T04:42:56.611Z,4.60
2019-01-18T04:45:25.693Z,6.17
2019-01-18T04:47:54.742Z,2.90
2019-01-18T04:50:26.509Z,6.17
2019-01-18T04:52:55.474Z,3.30
2019-01-18T04:55:25.133Z,4.57
2019-01-18T04:57:54.175Z,5.13
2019-01-18T05:00:31.196Z,3.70
2019-01-18T05:03:00.300Z,6.03
2019-01-18T05:05:29.436Z,4.80
2019-01-18T05:07:58.412Z,6.47
2019-01-18T05:10:28.908Z,5.57
2019-01-18T05:12:58.135Z,4.70
2019-01-18T05:15:29.711Z,4.83
2019-01-18T05:17:58.778Z,3.93
2019-01-18T05:20:27.876Z,6.20
2019-01-18T05:22:56.859Z,4.67
2019-01-18T05:25:25.885Z,6.37
2019-01-18T05:27:54.942Z,4.40
2019-01-18T05:30:31.026Z,6.37
2019-01-18T05:33:00.035Z,8.87
2019-01-18T05:35:29.160Z,5.77
2019-01-18T05:37:58.283Z,4.73
2019-01-18T05:40:27.397Z,7.00
2019-01-18T05:42:56.443Z,7.00
2019-01-18T05:45:25.490Z,4.73
2019-01-18T05:47:54.442Z,7.37
2019-01-18T05:50:25.648Z,7.03
2019-01-18T05:52:54.894Z,8.33
2019-01-18T05:55:23.987Z,7.77
2019-01-18T05:57:53.085Z,8.57
2019-01-18T06:00:28.782Z,6.73
2019-01-18T06:02:57.822Z,7.43
2019-01-18T06:05:28.049Z,10.13
2019-01-18T06:07:57.091Z,8.33
2019-01-18T06:10:26.054Z,8.93
2019-01-18T06:12:55.025Z,7.93
2019-01-18T06:15:24.014Z,5.50
2019-01-18T06:17:52.990Z,5.83
2019-01-18T06:20:22.018Z,6.60
2019-01-18T06:22:51.058Z,8.63
2019-01-18T06:25:20.018Z,7.13
2019-01-18T06:27:49.018Z,6.23
2019-01-18T06:30:19.604Z,6.97
2019-01-18T06:32:48.558Z,9.90
2019-01-18T06:35:18.228Z,9.07
2019-01-18T06:37:47.301Z,6.10
2019-01-18T06:40:19.083Z,7.40
2019-01-18T06:42:48.178Z,5.97
2019-01-18T06:45:25.833Z,7.53
2019-01-18T06:47:54.879Z,10.07
2019-01-18T06:50:23.907Z,8.23
2019-01-18T06:52:52.898Z,11.77
2019-01-18T06:55:21.928Z,9.47
2019-01-18T06:57:50.903Z,7.00
2019-01-18T07:00:22.673Z,8.23
2019-01-18T07:02:51.646Z,11.13
2019-01-18T07:05:20.847Z,9.23
2019-01-18T07:07:49.819Z,14.60
2019-01-18T07:10:21.197Z,10.43
2019-01-18T07:12:50.415Z,8.70
2019-01-18T07:15:21.315Z,11.57
2019-01-18T07:17:50.372Z,11.80
2019-01-18T07:20:20.781Z,9.20
2019-01-18T07:22:49.993Z,7.87
2019-01-18T07:25:21.960Z,8.80
2019-01-18T07:27:51.075Z,11.40
2019-01-18T07:30:28.609Z,11.33
2019-01-18T07:32:57.605Z,13.77
2019-01-18T07:35:26.710Z,7.30
2019-01-18T07:37:55.679Z,9.07
2019-01-18T07:40:26.089Z,9.30
2019-01-18T07:42:55.462Z,10.93
2019-01-18T07:45:27.542Z,11.47
2019-01-18T07:47:56.891Z,9.67
2019-01-18T07:50:25.927Z,9.20
2019-01-18T07:52:55.437Z,13.67
2019-01-18T07:55:24.408Z,12.50
2019-01-18T07:57:53.440Z,10.10
2019-01-18T08:00:24.974Z,12.57
2019-01-18T08:02:53.945Z,12.67
2019-01-18T08:05:24.672Z,9.53
2019-01-18T08:07:53.772Z,12.87
2019-01-18T08:10:24.193Z,9.60
2019-01-18T08:12:53.161Z,10.07
2019-01-18T08:15:27.143Z,11.67
2019-01-18T08:17:56.947Z,10.90
2019-01-18T08:20:27.751Z,9.80
2019-01-18T08:22:57.642Z,8.77
2019-01-18T08:25:26.994Z,13.10
2019-01-18T08:27:56.391Z,10.80
2019-01-18T08:30:27.402Z,12.93
2019-01-18T08:35:18.275Z,11.87
2019-01-18T08:37:47.367Z,13.10
2019-01-18T08:40:19.282Z,8.37
2019-01-18T08:42:48.379Z,8.17
2019-01-18T08:45:26.122Z,12.50
2019-01-18T08:47:55.332Z,9.47
2019-01-18T08:50:25.665Z,10.87
2019-01-18T08:52:54.635Z,12.67
2019-01-18T08:55:23.624Z,8.93
2019-01-18T08:57:52.580Z,11.97
2019-01-18T09:00:29.471Z,11.23
2019-01-18T09:02:58.430Z,9.90
2019-01-18T09:05:28.651Z,9.90
2019-01-18T09:07:57.674Z,9.27
2019-01-18T09:10:29.732Z,13.40
2019-01-18T09:12:58.755Z,13.70
2019-01-18T09:15:28.078Z,12.07
2019-01-18T09:17:57.126Z,11.70
2019-01-18T09:20:29.182Z,8.87
2019-01-18T09:22:58.342Z,10.17
2019-01-18T09:25:27.453Z,8.47
2019-01-18T09:27:56.546Z,11.30
2019-01-18T09:30:28.408Z,9.73
2019-01-18T09:32:57.418Z,8.67
2019-01-18T09:35:26.938Z,6.60
2019-01-18T09:37:58.239Z,7.00
2019-01-18T09:40:34.322Z,7.33
2019-01-18T09:43:03.418Z,6.60
2019-01-18T09:45:32.392Z,7.87
2019-01-18T09:48:01.494Z,7.97
2019-01-18T09:50:33.521Z,8.07
2019-01-18T09:53:05.234Z,7.60
2019-01-18T09:55:35.125Z,7.13
2019-01-18T09:58:04.602Z,7.03
2019-01-18T10:00:36.196Z,8.60
2019-01-18T10:03:05.378Z,6.93
2019-01-18T10:05:34.422Z,7.37
2019-01-18T10:08:03.851Z,6.50
2019-01-18T10:10:32.955Z,6.70
2019-01-18T10:13:01.940Z,8.13
2019-01-18T10:15:33.661Z,7.53
2019-01-18T10:18:02.703Z,9.83
2019-01-18T10:20:31.670Z,7.97
2019-01-18T10:23:00.714Z,9.80
2019-01-18T10:25:29.754Z,7.90
2019-01-18T10:27:58.816Z,7.47
2019-01-18T10:30:28.422Z,6.10
2019-01-18T10:32:57.445Z,9.53
2019-01-18T10:35:27.557Z,9.33
2019-01-18T10:37:56.599Z,12.17
2019-01-18T10:40:25.646Z,7.10
2019-01-18T10:42:55.634Z,7.83
2019-01-18T10:45:24.859Z,8.33
2019-01-18T10:47:53.993Z,8.40
2019-01-18T10:50:28.510Z,6.37
2019-01-18T10:52:57.535Z,7.60
2019-01-18T10:55:26.594Z,7.47
2019-01-18T10:57:55.688Z,8.67
2019-01-18T11:00:27.083Z,6.83
2019-01-18T11:02:56.993Z,6.33
2019-01-18T11:05:26.686Z,6.80
2019-01-18T11:07:55.724Z,7.13
2019-01-18T11:10:24.771Z,6.20
2019-01-18T11:12:53.806Z,5.70
2019-01-18T11:15:25.582Z,5.80
2019-01-18T11:17:54.896Z,5.47
2019-01-18T11:20:41.572Z,6.23
2019-01-18T11:23:10.711Z,8.27
2019-01-18T11:25:39.822Z,5.67
2019-01-18T11:28:08.847Z,5.87
2019-01-18T11:30:37.899Z,5.17
2019-01-18T11:33:06.871Z,5.67
2019-01-18T11:35:35.915Z,6.33
2019-01-18T11:38:05.518Z,7.00
2019-01-18T11:40:34.560Z,6.00
2019-01-18T11:43:03.587Z,7.70
2019-01-18T11:45:32.559Z,6.67
2019-01-18T11:48:01.592Z,6.87
2019-01-18T11:50:30.561Z,7.53
2019-01-18T11:52:59.663Z,7.77
2019-01-18T11:55:28.671Z,5.73
2019-01-18T11:57:57.641Z,6.70
2019-01-18T12:00:28.762Z,6.80
2019-01-18T12:02:57.719Z,6.90
2019-01-18T12:05:27.068Z,5.47
2019-01-18T12:07:56.084Z,7.73
2019-01-18T12:10:27.467Z,6.27
2019-01-18T12:12:56.667Z,7.43
2019-01-18T12:15:26.037Z,6.23
2019-01-18T12:17:55.087Z,9.03
2019-01-18T12:20:29.999Z,6.93
2019-01-18T12:22:59.307Z,6.17
2019-01-18T12:25:28.289Z,5.97
2019-01-18T12:27:57.326Z,7.00
2019-01-18T12:30:31.379Z,8.50
2019-01-18T12:33:00.486Z,7.13
2019-01-18T12:35:29.536Z,7.03
2019-01-18T12:37:58.698Z,8.10
2019-01-18T12:40:28.022Z,7.03
2019-01-18T12:42:57.867Z,7.93
2019-01-18T12:45:27.183Z,5.60
2019-01-18T12:47:56.302Z,8.93
2019-01-18T12:50:31.042Z,5.63
2019-01-18T12:53:00.123Z,7.80
2019-01-18T12:55:29.230Z,7.40
2019-01-18T12:57:58.193Z,7.10
2019-01-18T13:00:29.475Z,9.47
2019-01-18T13:02:58.958Z,7.47
2019-01-18T13:05:33.438Z,9.20
2019-01-18T13:08:02.556Z,8.57
2019-01-18T13:10:31.582Z,7.33
2019-01-18T13:13:00.631Z,10.00
2019-01-18T13:15:38.292Z,9.10
2019-01-18T13:18:07.259Z,17.23
2019-01-18T13:20:36.241Z,5.77
2019-01-18T13:23:05.294Z,10.77
2019-01-18T13:25:34.394Z,9.57
2019-01-18T13:28:03.534Z,7.70
2019-01-18T13:30:32.516Z,11.30
2019-01-18T13:33:01.483Z,9.20
2019-01-18T13:35:30.436Z,6.50
2019-01-18T13:37:59.498Z,5.30
2019-01-18T13:40:28.459Z,5.83
2019-01-18T13:42:57.447Z,6.50
2019-01-18T13:45:26.564Z,6.33
2019-01-18T13:47:55.620Z,5.97
2019-01-18T13:50:24.755Z,6.03
2019-01-18T13:52:53.727Z,7.67
2019-01-18T13:55:27.719Z,7.60
2019-01-18T13:57:56.838Z,5.83
2019-01-18T14:00:25.823Z,7.63
2019-01-18T14:02:55.126Z,5.90
2019-01-18T14:05:24.222Z,6.50
2019-01-18T14:07:53.641Z,6.97
2019-01-18T14:10:31.260Z,8.70
2019-01-18T14:13:00.286Z,7.07
2019-01-18T14:15:29.382Z,4.50
2019-01-18T14:17:58.374Z,5.30
2019-01-18T14:20:30.646Z,8.67
2019-01-18T14:22:59.699Z,6.00
2019-01-18T14:25:28.725Z,7.57
2019-01-18T14:27:57.718Z,6.60
2019-01-18T14:30:28.316Z,8.63
2019-01-18T14:32:57.453Z,8.50
2019-01-18T14:35:27.378Z,8.13
2019-01-18T14:37:56.366Z,8.67
2019-01-18T14:40:25.334Z,8.30
2019-01-18T14:42:55.476Z,7.50
2019-01-18T14:45:30.470Z,6.97
2019-01-18T14:47:59.459Z,7.53
2019-01-18T14:50:28.488Z,7.03
2019-01-18T14:52:57.462Z,8.43
2019-01-18T14:55:26.429Z,9.37
2019-01-18T14:57:56.200Z,7.57
2019-01-18T15:00:31.446Z,7.77
2019-01-18T15:03:02.376Z,7.20
2019-01-18T15:05:31.228Z,5.83
2019-01-18T15:08:00.298Z,10.07
2019-01-18T15:10:29.310Z,7.13
2019-01-18T15:13:04.012Z,6.63
2019-01-18T15:15:33.299Z,6.27
2019-01-18T15:18:02.279Z,7.83
2019-01-18T15:20:33.160Z,7.60
2019-01-18T15:23:02.479Z,6.13
2019-01-18T15:25:31.523Z,7.27
2019-01-18T15:28:01.013Z,8.50
2019-01-18T15:30:33.042Z,6.20
2019-01-18T15:33:02.189Z,7.70
2019-01-18T15:35:35.093Z,7.83
2019-01-18T15:38:05.462Z,8.90
2019-01-18T15:40:41.199Z,9.27
2019-01-18T15:43:11.531Z,7.30
2019-01-18T15:45:40.551Z,9.47
2019-01-18T15:48:09.596Z,9.50
2019-01-18T15:50:39.405Z,9.80
2019-01-18T15:53:08.910Z,8.70
2019-01-18T15:55:37.951Z,8.77
2019-01-18T15:58:07.279Z,8.93
2019-01-18T16:00:41.427Z,10.90
2019-01-18T16:03:15.803Z,8.27
2019-01-18T16:05:41.287Z,11.83
2019-01-18T16:08:10.402Z,11.07
2019-01-18T16:10:39.636Z,29.70
2019-01-18T16:13:08.712Z,96.47
2019-01-18T16:15:40.899Z,60.37
2019-01-18T16:18:16.142Z,64.80
2019-01-18T16:20:45.121Z,63.90
2019-01-18T16:23:14.192Z,39.73
2019-01-18T16:25:43.142Z,25.77
2019-01-18T16:28:12.281Z,25.00
2019-01-18T16:30:41.390Z,18.23
2019-01-18T16:33:10.514Z,15.03
2019-01-18T16:35:39.483Z,14.43
2019-01-18T16:38:11.217Z,13.40
2019-01-18T16:40:40.402Z,13.03
2019-01-18T16:43:24.572Z,12.33
2019-01-18T16:45:53.600Z,15.10
2019-01-18T16:48:22.587Z,12.93
2019-01-18T16:50:51.664Z,15.17
2019-01-18T16:53:20.695Z,13.53
2019-01-18T16:55:49.666Z,12.10
2019-01-18T16:58:18.754Z,10.90
2019-01-18T17:00:53.733Z,12.57
2019-01-18T17:03:22.874Z,11.10
2019-01-18T17:05:51.864Z,10.03
2019-01-18T17:08:20.966Z,12.40
2019-01-18T17:10:50.068Z,12.73
2019-01-18T17:13:19.882Z,12.77
2019-01-18T17:15:48.888Z,11.40
2019-01-18T17:18:18.323Z,14.13
2019-01-18T17:20:48.502Z,16.80
2019-01-18T17:23:17.627Z,13.00
2019-01-18T17:25:46.601Z,12.43
2019-01-18T17:28:15.658Z,12.83
2019-01-18T17:30:44.663Z,11.67
2019-01-18T17:33:13.719Z,12.33
2019-01-18T17:35:57.612Z,12.97
2019-01-18T17:38:55.270Z,12.97
2019-01-18T17:42:00.724Z,12.17
2019-01-18T17:44:35.731Z,11.60
2019-01-18T17:47:25.372Z,10.60
2019-01-18T17:50:16.715Z,12.07
2019-01-18T17:53:08.163Z,10.90
2019-01-18T17:55:52.422Z,8.83
2019-01-18T17:58:42.175Z,9.10
2019-01-18T18:01:31.854Z,12.80
2019-01-18T18:04:18.682Z,8.70
2019-01-18T18:06:56.595Z,10.90
2019-01-18T18:09:31.360Z,9.90
2019-01-18T18:12:09.292Z,12.77
2019-01-18T18:14:56.504Z,8.27
2019-01-18T18:17:31.396Z,11.93
2019-01-18T18:20:25.726Z,9.87
2019-01-18T18:23:29.462Z,10.33
2019-01-18T18:26:01.535Z,11.37
2019-01-18T18:28:54.367Z,9.77
2019-01-18T18:31:38.349Z,8.50
2019-01-18T18:34:22.214Z,8.93
2019-01-18T18:37:09.539Z,10.90
2019-01-18T18:39:41.604Z,16.23
2019-01-18T18:42:28.152Z,8.27
2019-01-18T18:44:56.041Z,8.50
2019-01-18T18:47:50.382Z,9.97
2019-01-18T18:50:25.376Z,13.50
2019-01-18T18:53:22.901Z,8.00
2019-01-18T18:55:57.895Z,8.87
2019-01-18T18:58:46.351Z,7.17
2019-01-18T19:01:18.635Z,11.90
2019-01-18T19:03:57.556Z,11.50
2019-01-18T19:06:30.154Z,9.13
2019-01-18T19:09:20.475Z,8.83
2019-01-18T19:11:58.301Z,7.70
2019-01-18T19:14:39.352Z,9.00
2019-01-18T19:17:17.007Z,8.27
2019-01-18T19:20:00.967Z,7.63
2019-01-18T19:22:35.785Z,11.20
2019-01-18T19:25:20.045Z,8.17
2019-01-18T19:27:54.720Z,8.37
2019-01-18T19:30:50.526Z,7.77
2019-01-18T19:33:41.935Z,8.67
2019-01-18T19:36:14.185Z,6.13
2019-01-18T19:38:51.872Z,8.63
2019-01-18T19:41:38.653Z,7.40
2019-01-18T19:44:22.527Z,7.67
2019-01-18T19:47:08.910Z,7.27
2019-01-18T19:50:00.529Z,11.17
2019-01-18T19:52:35.144Z,12.20
2019-01-18T19:55:31.678Z,10.90
2019-01-18T19:58:21.863Z,9.27
2019-01-18T20:01:02.946Z,14.23
2019-01-18T20:03:51.723Z,9.17
2019-01-18T20:06:43.302Z,10.80
2019-01-18T20:09:23.982Z,8.40
2019-01-18T20:11:58.590Z,6.50
2019-01-18T20:14:36.609Z,8.20
2019-01-18T20:17:11.459Z,6.33
2019-01-18T20:20:02.984Z,8.23
2019-01-18T20:22:37.962Z,7.40
2019-01-18T20:25:24.983Z,9.47
2019-01-18T20:28:15.255Z,9.53
2019-01-18T20:30:55.919Z,7.70
2019-01-18T20:33:55.280Z,9.50
2019-01-18T20:36:57.368Z,5.67
2019-01-18T20:39:50.731Z,7.63
2019-01-18T20:42:31.523Z,6.83
2019-01-18T20:45:15.543Z,6.80
2019-01-18T20:47:59.738Z,6.47
2019-01-18T20:50:53.190Z,10.17
2019-01-18T20:53:52.410Z,6.23
2019-01-18T20:56:30.096Z,7.13
2019-01-18T20:59:10.915Z,8.87
2019-01-18T21:01:48.948Z,8.83
2019-01-18T21:04:35.327Z,7.77
2019-01-18T21:07:13.054Z,8.17
2019-01-18T21:09:56.723Z,6.60
2019-01-18T21:12:45.180Z,6.40
2019-01-18T21:15:32.151Z,5.23
2019-01-18T21:18:12.895Z,5.60
2019-01-18T21:21:00.170Z,6.23
2019-01-18T21:23:50.222Z,8.27
2019-01-18T21:26:25.248Z,7.70
2019-01-18T21:29:15.573Z,6.83
2019-01-18T21:31:59.756Z,7.97
2019-01-18T21:34:40.179Z,6.80
2019-01-18T21:37:30.541Z,8.93
2019-01-18T21:40:31.199Z,5.70
2019-01-18T21:43:19.972Z,5.73
2019-01-18T21:45:57.899Z,7.67
2019-01-18T21:48:38.788Z,6.73
2019-01-18T21:51:23.048Z,7.17
2019-01-18T21:54:01.029Z,5.53
2019-01-18T21:56:41.828Z,6.60
2019-01-18T21:59:13.867Z,6.33
2019-01-18T22:01:54.912Z,7.03
2019-01-18T22:04:40.320Z,5.70
2019-01-18T22:07:27.684Z,6.17
2019-01-18T22:10:08.494Z,7.10
2019-01-18T22:12:49.140Z,7.40
2019-01-18T22:15:54.341Z,5.93
2019-01-18T22:18:29.135Z,7.27
2019-01-18T22:21:13.065Z,7.37
2019-01-18T22:23:45.126Z,8.40
2019-01-18T22:26:29.223Z,6.90
2019-01-18T22:29:16.307Z,7.60
2019-01-18T22:31:50.983Z,7.70
2019-01-18T22:34:47.822Z,5.90
2019-01-18T22:37:39.320Z,5.80
2019-01-18T22:40:14.479Z,5.00
2019-01-18T22:42:52.427Z,7.43
2019-01-18T22:45:33.462Z,6.83
2019-01-18T22:48:29.535Z,6.20
2019-01-18T22:51:22.363Z,6.10
2019-01-18T22:53:54.417Z,4.80
2019-01-18T22:56:43.168Z,5.00
2019-01-18T22:59:30.137Z,4.27
2019-01-18T23:02:23.023Z,4.97
2019-01-18T23:05:10.126Z,5.80
2019-01-18T23:07:54.166Z,5.23
2019-01-18T23:10:26.247Z,5.07
2019-01-18T23:13:10.181Z,5.10
2019-01-18T23:15:45.106Z,6.60
2019-01-18T23:18:29.079Z,6.27
2019-01-18T23:21:23.419Z,7.30
2019-01-18T23:23:55.464Z,6.30
2019-01-18T23:26:44.145Z,5.43
2019-01-18T23:29:21.935Z,4.77
2019-01-18T23:31:53.979Z,5.07
2019-01-18T23:34:48.430Z,10.97
2019-01-18T23:37:20.506Z,4.47
2019-01-18T23:40:01.228Z,5.30
2019-01-18T23:42:39.026Z,9.70
2019-01-18T23:45:13.641Z,4.43
2019-01-18T23:47:48.627Z,4.07
2019-01-18T23:50:20.764Z,5.57
2019-01-18T23:53:13.555Z,4.37
2019-01-18T23:55:54.546Z,7.03
2019-01-18T23:58:43.183Z,3.93
